Time;durP1;ratioP1;P1;durP2;ratioP2;P2;SDS_P1;SDS_P2;PMS_P1;PMS_P2;Temp;Humidity;BMP_temperature;BMP_pressure;BME280_temperature;BME280_humidity;BME280_pressure;Samples;Min_cycle;Max_cycle;Signal;HPM_P1;HPM_P2
2023/03/07 00:01:49;;;;;;;27.27;12.43;;;;;;;1.70;100.00;98773.06;6069457;29;20487;-85
2023/03/07 00:04:52;;;;;;;23.60;12.23;;;;;;;1.69;100.00;98771.41;6070722;29;20423;-85
2023/03/07 00:07:54;;;;;;;26.70;12.48;;;;;;;1.72;100.00;98761.84;6079240;29;20045;-86
2023/03/07 00:11:00;;;;;;;26.30;12.00;;;;;;;1.74;100.00;98748.97;6073781;29;20406;-86
2023/03/07 00:14:06;;;;;;;25.38;12.23;;;;;;;1.83;100.00;98750.84;6099260;29;20075;-85
2023/03/07 00:17:08;;;;;;;25.83;12.77;;;;;;;1.79;100.00;98746.09;6076442;29;20049;-85
2023/03/07 00:20:13;;;;;;;24.77;13.15;;;;;;;1.77;100.00;98736.00;6069327;29;20048;-85
2023/03/07 00:23:15;;;;;;;24.67;11.93;;;;;;;1.88;100.00;98740.34;6071387;29;20513;-86
2023/03/07 00:26:20;;;;;;;27.52;12.50;;;;;;;1.83;100.00;98733.00;6071973;29;20076;-85
2023/03/07 00:29:22;;;;;;;31.15;13.30;;;;;;;1.81;100.00;98723.84;6083702;29;20217;-85
2023/03/07 00:32:25;;;;;;;24.08;11.20;;;;;;;1.78;100.00;98729.16;6071764;29;20521;-85
2023/03/07 00:35:27;;;;;;;28.67;13.02;;;;;;;1.73;100.00;98724.38;6076531;29;20048;-85
2023/03/07 00:38:30;;;;;;;25.52;11.60;;;;;;;1.69;100.00;98720.41;6071483;29;20051;-85
2023/03/07 00:41:31;;;;;;;27.15;12.18;;;;;;;1.63;100.00;98713.22;6069311;29;20448;-85
2023/03/07 00:44:33;;;;;;;26.60;12.15;;;;;;;1.63;100.00;98715.78;6063482;29;20059;-86
2023/03/07 00:47:36;;;;;;;22.33;11.30;;;;;;;1.61;100.00;98699.75;6053863;29;20521;-86
2023/03/07 00:50:38;;;;;;;26.90;11.65;;;;;;;1.54;100.00;98701.13;6084093;29;20043;-85
2023/03/07 00:53:41;;;;;;;23.02;11.75;;;;;;;1.56;100.00;98696.72;6089278;29;20048;-85
2023/03/07 00:56:43;;;;;;;23.65;12.32;;;;;;;1.53;100.00;98690.09;6095544;29;20517;-86
2023/03/07 00:59:45;;;;;;;26.00;12.90;;;;;;;1.51;100.00;98691.94;6068440;29;20360;-86
2023/03/07 01:02:50;;;;;;;25.02;12.07;;;;;;;1.53;100.00;98677.34;6070464;29;20041;-86
2023/03/07 01:05:52;;;;;;;22.73;11.73;;;;;;;1.58;100.00;98671.94;6053313;29;20045;-85
2023/03/07 01:08:58;;;;;;;23.98;11.55;;;;;;;1.60;100.00;98659.91;6073407;29;20103;-86
2023/03/07 01:11:59;;;;;;;24.08;12.23;;;;;;;1.56;100.00;98645.72;6081059;29;20071;-85
2023/03/07 01:15:04;;;;;;;21.05;9.68;;;;;;;1.59;100.00;98648.06;6079700;29;20059;-85
2023/03/07 01:18:08;;;;;;;20.63;10.43;;;;;;;1.63;100.00;98640.06;6072039;29;20044;-85
2023/03/07 01:21:24;;;;;;;20.58;10.30;;;;;;;1.64;100.00;98633.22;6076255;29;20730;-85
2023/03/07 01:24:26;;;;;;;21.42;10.70;;;;;;;1.66;100.00;98629.66;6066721;29;20614;-85
2023/03/07 01:27:28;;;;;;;20.80;9.90;;;;;;;1.69;100.00;98626.91;6075908;29;20075;-85
2023/03/07 01:30:30;;;;;;;19.10;9.65;;;;;;;1.62;100.00;98619.81;6092114;29;20188;-85
2023/03/07 01:33:33;;;;;;;20.98;10.70;;;;;;;1.66;100.00;98608.44;6090680;29;20094;-85
2023/03/07 01:36:36;;;;;;;19.63;10.40;;;;;;;1.63;100.00;98611.22;6058646;29;20059;-85
2023/03/07 01:39:39;;;;;;;21.90;11.00;;;;;;;1.64;100.00;98605.19;6072198;29;20260;-85
2023/03/07 01:42:43;;;;;;;22.15;10.55;;;;;;;1.65;100.00;98597.44;6071242;29;20051;-85
2023/03/07 01:45:50;;;;;;;18.13;8.88;;;;;;;1.67;100.00;98595.59;6068209;29;20040;-85
2023/03/07 01:48:59;;;;;;;20.23;9.77;;;;;;;1.70;100.00;98589.44;6092293;29;20083;-85
2023/03/07 01:52:07;;;;;;;20.00;9.00;;;;;;;1.63;100.00;98585.72;6083939;29;20044;-85
2023/03/07 01:55:15;;;;;;;18.08;9.38;;;;;;;1.59;100.00;98587.69;6057741;29;20475;-85
2023/03/07 01:58:18;;;;;;;18.05;9.55;;;;;;;1.60;100.00;98589.31;6082942;29;20111;-84
2023/03/07 02:01:22;;;;;;;19.38;9.50;;;;;;;1.62;100.00;98581.56;6068243;29;20137;-84
2023/03/07 02:04:58;;;;;;;17.17;8.45;;;;;;;1.61;100.00;98567.97;6056753;29;20052;-84
2023/03/07 02:08:01;;;;;;;14.77;7.70;;;;;;;1.64;100.00;98561.84;5969737;29;20050;-84
2023/03/07 02:11:06;;;;;;;13.85;6.70;;;;;;;1.61;100.00;98560.31;5957153;29;20483;-84
2023/03/07 02:14:09;;;;;;;14.50;7.55;;;;;;;1.58;100.00;98567.41;5978767;29;20058;-84
2023/03/07 02:17:13;;;;;;;13.48;7.32;;;;;;;1.58;100.00;98547.00;5972911;29;20054;-84
2023/03/07 02:20:53;;;;;;;13.48;6.43;;;;;;;1.57;100.00;98553.84;5963430;29;20046;-85
2023/03/07 02:24:02;;;;;;;12.23;6.10;;;;;;;1.60;100.00;98557.91;5976508;29;20058;-85
2023/03/07 02:27:04;;;;;;;13.30;6.10;;;;;;;1.56;100.00;98554.75;5979482;29;20077;-85
2023/03/07 02:30:07;;;;;;;11.93;6.13;;;;;;;1.59;100.00;98551.16;5980211;29;20054;-85
2023/03/07 02:33:09;;;;;;;12.88;6.72;;;;;;;1.55;100.00;98550.59;5977063;29;20060;-85
2023/03/07 02:36:16;;;;;;;11.63;5.70;;;;;;;1.62;100.00;98556.06;5958997;29;20088;-86
2023/03/07 02:39:33;;;;;;;9.90;5.22;;;;;;;1.59;100.00;98557.09;5964537;29;20424;-86
2023/03/07 02:42:40;;;;;;;9.60;5.72;;;;;;;1.59;100.00;98552.00;5974523;29;20095;-86
2023/03/07 02:45:56;;;;;;;9.90;5.68;;;;;;;1.65;100.00;98543.06;6054054;29;20409;-85
2023/03/07 02:49:04;;;;;;;11.20;5.45;;;;;;;1.67;100.00;98534.38;6091024;29;20039;-86
2023/03/07 02:52:07;;;;;;;9.38;5.85;;;;;;;1.63;100.00;98532.97;6066279;29;20079;-87
2023/03/07 02:55:09;;;;;;;9.50;5.45;;;;;;;1.61;100.00;98528.91;6079814;29;20100;-87
2023/03/07 02:58:16;;;;;;;8.82;5.28;;;;;;;1.56;100.00;98531.81;6089296;29;20115;-87
2023/03/07 03:01:18;;;;;;;10.27;6.15;;;;;;;1.62;100.00;98528.00;6066871;29;20120;-88
2023/03/07 03:04:20;;;;;;;10.98;5.82;;;;;;;1.67;100.00;98533.56;6065351;29;20083;-87
2023/03/07 03:07:24;;;;;;;10.13;5.28;;;;;;;1.70;100.00;98523.94;6065000;29;20061;-88
2023/03/07 03:10:26;;;;;;;10.45;6.38;;;;;;;1.81;100.00;98533.34;6070368;29;20045;-88
2023/03/07 03:13:29;;;;;;;10.88;6.30;;;;;;;1.81;100.00;98522.31;6068437;29;20040;-89
2023/03/07 03:16:31;;;;;;;9.70;5.78;;;;;;;1.85;100.00;98527.09;6068066;29;20051;-89
2023/03/07 03:19:34;;;;;;;11.88;6.85;;;;;;;1.90;100.00;98519.09;6066773;29;20045;-88
2023/03/07 03:22:36;;;;;;;11.65;6.28;;;;;;;1.86;100.00;98507.47;6080809;29;20380;-87
2023/03/07 03:25:39;;;;;;;9.52;5.88;;;;;;;1.96;100.00;98512.72;6063388;29;20052;-87
2023/03/07 03:28:42;;;;;;;12.20;6.38;;;;;;;1.94;100.00;98506.00;6063653;29;20055;-88
2023/03/07 03:31:44;;;;;;;10.55;5.90;;;;;;;2.00;100.00;98509.81;6060060;29;20561;-88
2023/03/07 03:34:47;;;;;;;11.95;6.40;;;;;;;2.07;100.00;98516.06;6079609;29;20052;-88
2023/03/07 03:37:49;;;;;;;11.43;6.35;;;;;;;2.11;100.00;98519.19;6069623;29;20033;-88
2023/03/07 03:40:51;;;;;;;11.23;6.43;;;;;;;2.09;100.00;98515.97;6064143;29;20523;-88
2023/03/07 03:43:53;;;;;;;13.05;6.55;;;;;;;2.10;100.00;98500.53;6065635;29;20040;-89
2023/03/07 03:46:55;;;;;;;11.02;6.63;;;;;;;2.14;100.00;98503.66;6063186;29;20266;-88
2023/03/07 03:49:58;;;;;;;12.70;6.22;;;;;;;2.13;100.00;98497.72;6065174;29;20491;-88
2023/03/07 03:53:01;;;;;;;10.15;5.85;;;;;;;2.11;100.00;98497.06;6063642;29;20507;-88
2023/03/07 03:56:12;;;;;;;10.95;6.30;;;;;;;2.13;100.00;98499.47;6066919;29;20523;-88
2023/03/07 03:59:15;;;;;;;10.48;6.07;;;;;;;2.26;100.00;98491.66;6082497;29;20139;-88
2023/03/07 04:02:17;;;;;;;12.43;6.82;;;;;;;2.29;100.00;98489.72;6075425;29;20131;-88
2023/03/07 04:05:20;;;;;;;11.15;6.32;;;;;;;2.26;100.00;98479.75;6086915;29;20056;-87
2023/03/07 04:08:22;;;;;;;9.93;5.78;;;;;;;2.31;100.00;98492.97;6067291;29;20494;-87
2023/03/07 04:11:24;;;;;;;10.55;6.07;;;;;;;2.36;100.00;98497.69;6066033;29;20060;-88
2023/03/07 04:14:26;;;;;;;10.82;6.65;;;;;;;2.37;100.00;98487.38;6084453;29;20396;-87
2023/03/07 04:17:28;;;;;;;9.77;5.95;;;;;;;2.45;100.00;98485.97;6076058;29;20048;-88
2023/03/07 04:20:29;;;;;;;9.65;6.25;;;;;;;2.40;100.00;98490.63;6066731;29;20448;-87
2023/03/07 04:23:32;;;;;;;11.07;6.35;;;;;;;2.37;100.00;98489.91;6071061;29;20048;-88
2023/03/07 04:26:35;;;;;;;11.48;7.13;;;;;;;2.34;100.00;98481.69;6068361;29;20037;-88
2023/03/07 04:29:37;;;;;;;13.15;6.63;;;;;;;2.30;100.00;98486.22;6080671;29;20052;-88
2023/03/07 04:32:50;;;;;;;11.48;6.43;;;;;;;2.28;100.00;98479.59;6066394;29;20408;-88
2023/03/07 04:35:52;;;;;;;12.13;7.38;;;;;;;2.29;100.00;98473.59;6080112;29;20163;-89
2023/03/07 04:38:54;;;;;;;13.43;7.65;;;;;;;2.36;100.00;98477.25;6086434;29;20059;-88
2023/03/07 04:41:56;;;;;;;12.73;7.00;;;;;;;2.43;100.00;98478.41;6070919;29;20598;-88
2023/03/07 04:44:58;;;;;;;10.77;7.15;;;;;;;2.46;100.00;98467.97;6071633;29;20146;-88
2023/03/07 04:48:00;;;;;;;11.88;6.30;;;;;;;2.49;100.00;98467.72;6077613;29;20040;-88
2023/03/07 04:51:04;;;;;;;12.50;6.97;;;;;;;2.38;100.00;98470.31;6073769;29;20099;-89
2023/03/07 04:54:06;;;;;;;12.65;6.85;;;;;;;2.44;100.00;98472.38;6075238;29;20044;-89
2023/03/07 04:57:08;;;;;;;11.88;5.97;;;;;;;2.41;100.00;98462.44;6090706;29;20423;-89
2023/03/07 05:00:12;;;;;;;12.85;5.60;;;;;;;2.30;100.00;98465.78;6082357;29;20464;-90
2023/03/07 05:03:14;;;;;;;10.30;5.95;;;;;;;2.26;100.00;98479.75;6076894;29;20585;-90
2023/03/07 05:06:16;;;;;;;11.73;6.15;;;;;;;2.27;100.00;98488.22;6069125;29;20048;-87
2023/03/07 05:09:26;;;;;;;10.75;5.78;;;;;;;2.27;100.00;98496.66;6071682;29;20041;-87
2023/03/07 05:12:31;;;;;;;10.10;6.13;;;;;;;2.23;100.00;98502.94;6092137;29;20048;-87
2023/03/07 05:15:33;;;;;;;11.27;6.35;;;;;;;2.19;100.00;98504.13;6070325;29;20499;-89
2023/03/07 05:18:35;;;;;;;12.57;6.63;;;;;;;2.20;100.00;98513.38;6072170;29;20045;-89
2023/03/07 05:21:39;;;;;;;13.02;7.22;;;;;;;2.14;100.00;98511.31;6084800;29;20059;-88
2023/03/07 05:24:41;;;;;;;8.48;5.03;;;;;;;2.03;100.00;98521.53;6085962;29;20128;-86
2023/03/07 05:27:43;;;;;;;6.70;4.07;;;;;;;1.93;100.00;98514.56;6077142;29;20554;-85
2023/03/07 05:30:46;;;;;;;6.63;4.03;;;;;;;1.76;100.00;98534.63;6072879;29;20051;-90
2023/03/07 05:33:48;;;;;;;4.57;2.78;;;;;;;1.64;100.00;98516.75;6077125;29;20574;-90
2023/03/07 05:36:50;;;;;;;5.30;2.80;;;;;;;1.58;100.00;98521.50;6061743;29;20077;-85
2023/03/07 05:39:52;;;;;;;3.78;2.30;;;;;;;1.41;100.00;98508.25;6087342;29;20048;-86
2023/03/07 05:42:54;;;;;;;3.22;2.08;;;;;;;1.35;100.00;98513.81;6084404;29;20151;-85
2023/03/07 05:45:57;;;;;;;5.15;1.92;;;;;;;1.28;100.00;98505.78;6085642;29;20048;-87
2023/03/07 05:48:59;;;;;;;3.35;1.42;;;;;;;1.29;100.00;98494.69;6075941;29;20055;-87
2023/03/07 05:52:01;;;;;;;2.95;1.00;;;;;;;1.30;100.00;98495.50;6078010;29;20082;-89
2023/03/07 05:55:04;;;;;;;3.97;1.05;;;;;;;1.36;100.00;98495.03;6068932;29;20055;-91
2023/03/07 05:58:07;;;;;;;3.92;1.20;;;;;;;1.40;100.00;98495.63;6071981;29;20540;-93
2023/03/07 06:01:08;;;;;;;2.22;0.80;;;;;;;1.39;100.00;98486.34;6072421;29;20853;-94
2023/03/07 06:04:11;;;;;;;4.22;0.98;;;;;;;1.38;100.00;98485.53;6085422;29;20562;-94
2023/03/07 06:07:13;;;;;;;2.35;0.82;;;;;;;1.44;100.00;98482.56;6070430;29;20229;-93
2023/03/07 06:10:15;;;;;;;5.63;1.13;;;;;;;1.46;100.00;98484.97;6088628;29;20043;-94
2023/03/07 06:13:21;;;;;;;2.55;1.17;;;;;;;1.45;100.00;98484.16;6092870;29;20045;-94
2023/03/07 06:16:23;;;;;;;3.03;1.55;;;;;;;1.45;100.00;98481.63;6081662;29;20068;-95
2023/03/07 06:19:25;;;;;;;2.70;1.63;;;;;;;1.44;100.00;98482.56;6097163;29;20490;-94
2023/03/07 06:22:30;;;;;;;4.57;1.90;;;;;;;1.50;100.00;98478.72;6087565;29;20056;-93
2023/03/07 06:25:33;;;;;;;6.57;2.00;;;;;;;1.55;100.00;98475.84;6074388;29;20061;-93
2023/03/07 06:28:35;;;;;;;4.18;1.42;;;;;;;1.63;100.00;98481.16;6085310;29;20103;-91
2023/03/07 06:31:41;;;;;;;5.55;1.52;;;;;;;1.63;100.00;98488.81;6079943;29;20569;-92
2023/03/07 06:34:44;;;;;;;5.05;1.23;;;;;;;1.66;100.00;98468.19;6074997;29;20559;-90
2023/03/07 06:37:47;;;;;;;3.88;1.13;;;;;;;1.63;100.00;98466.69;6088505;29;20044;-90
2023/03/07 06:40:55;;;;;;;3.75;1.20;;;;;;;1.65;100.00;98461.47;6089102;29;20041;-88
2023/03/07 06:43:57;;;;;;;2.20;1.10;;;;;;;1.60;100.00;98464.38;6089641;29;20060;-88
2023/03/07 06:47:03;;;;;;;2.67;1.15;;;;;;;1.63;100.00;98464.13;6083327;29;20499;-87
2023/03/07 06:50:07;;;;;;;3.10;1.30;;;;;;;1.53;100.00;98457.28;6084260;29;20064;-88
2023/03/07 06:53:10;;;;;;;2.90;1.15;;;;;;;1.54;100.00;98469.94;6069002;29;20514;-86
2023/03/07 06:56:12;;;;;;;2.95;1.00;;;;;;;1.65;100.00;98474.22;6068383;29;20452;-88
2023/03/07 06:59:15;;;;;;;4.85;1.20;;;;;;;1.61;100.00;98471.06;6082709;29;20040;-87
2023/03/07 07:02:17;;;;;;;3.67;1.40;;;;;;;1.65;100.00;98476.78;6087572;29;20058;-87
2023/03/07 07:05:22;;;;;;;6.22;1.50;;;;;;;1.69;100.00;98489.19;6073908;29;20190;-87
2023/03/07 07:08:24;;;;;;;3.00;1.40;;;;;;;1.68;100.00;98489.28;6067504;29;20048;-86
2023/03/07 07:11:27;;;;;;;1.55;1.02;;;;;;;1.71;100.00;98479.69;6069749;29;20102;-87
2023/03/07 07:14:31;;;;;;;4.95;1.95;;;;;;;1.83;100.00;98483.03;6084805;29;20045;-86
2023/03/07 07:17:34;;;;;;;4.97;1.52;;;;;;;1.94;100.00;98488.13;6082037;29;20519;-86
2023/03/07 07:20:36;;;;;;;4.15;1.77;;;;;;;2.00;100.00;98496.25;6071300;29;20059;-86
2023/03/07 07:23:38;;;;;;;3.45;1.67;;;;;;;2.00;100.00;98499.59;6070419;29;20092;-86
2023/03/07 07:26:40;;;;;;;3.05;1.50;;;;;;;2.03;100.00;98498.56;6067620;29;21095;-86
2023/03/07 07:29:42;;;;;;;5.55;1.77;;;;;;;2.08;100.00;98497.25;6071099;29;20460;-86
2023/03/07 07:32:44;;;;;;;6.93;1.70;;;;;;;2.08;100.00;98491.34;6068200;29;20053;-86
2023/03/07 07:35:47;;;;;;;3.13;1.45;;;;;;;2.12;100.00;98497.88;6071505;29;20040;-86
2023/03/07 07:38:50;;;;;;;1.90;1.17;;;;;;;2.08;100.00;98504.13;6070079;29;20045;-87
2023/03/07 07:41:54;;;;;;;1.80;1.20;;;;;;;2.04;100.00;98507.84;6083855;29;20049;-86
2023/03/07 07:44:59;;;;;;;3.50;1.63;;;;;;;2.06;100.00;98506.81;6060773;29;20048;-87
2023/03/07 07:48:01;;;;;;;4.80;2.13;;;;;;;2.05;100.00;98524.78;6068272;29;20119;-88
2023/03/07 07:51:04;;;;;;;4.38;1.85;;;;;;;2.01;100.00;98511.41;6067410;29;20240;-89
2023/03/07 07:54:08;;;;;;;3.80;1.50;;;;;;;2.05;100.00;98517.13;6069119;29;20048;-90
2023/03/07 07:57:10;;;;;;;4.05;1.80;;;;;;;2.03;100.00;98521.53;6068785;29;20537;-89
2023/03/07 08:00:18;;;;;;;3.42;1.85;;;;;;;1.99;100.00;98530.31;6084141;29;20550;-91
2023/03/07 08:03:20;;;;;;;4.03;2.05;;;;;;;1.94;100.00;98534.06;6074356;29;20080;-90
2023/03/07 08:06:25;;;;;;;5.50;2.03;;;;;;;1.93;100.00;98518.84;6070701;29;20133;-90
2023/03/07 08:09:27;;;;;;;3.22;1.98;;;;;;;1.94;100.00;98521.28;6068779;29;20136;-91
2023/03/07 08:12:28;;;;;;;2.28;1.20;;;;;;;1.92;100.00;98517.25;6092717;29;20099;-89
2023/03/07 08:15:30;;;;;;;3.10;1.15;;;;;;;1.83;100.00;98516.19;6073369;29;20669;-92
2023/03/07 08:18:32;;;;;;;2.22;1.00;;;;;;;1.77;100.00;98521.75;6075967;29;20043;-92
2023/03/07 08:21:34;;;;;;;3.35;0.80;;;;;;;1.62;100.00;98533.09;6075764;29;20488;-90
2023/03/07 08:24:37;;;;;;;3.92;0.98;;;;;;;1.56;100.00;98523.34;6073131;29;20810;-91
2023/03/07 08:27:41;;;;;;;2.33;1.42;;;;;;;1.57;100.00;98518.16;6072616;29;20477;-91
2023/03/07 08:30:43;;;;;;;4.78;1.20;;;;;;;1.53;100.00;98516.75;6072854;29;20120;-92
2023/03/07 08:33:48;;;;;;;2.40;0.90;;;;;;;1.61;100.00;98524.63;6070767;29;20073;-90
2023/03/07 08:36:52;;;;;;;4.13;1.50;;;;;;;1.62;100.00;98531.38;6072347;29;20572;-90
2023/03/07 08:39:56;;;;;;;3.50;0.73;;;;;;;1.73;100.00;98522.91;6082396;29;20154;-90
2023/03/07 08:42:58;;;;;;;3.05;0.80;;;;;;;1.82;100.00;98527.31;6073345;29;20044;-89
2023/03/07 08:46:00;;;;;;;3.97;1.00;;;;;;;1.77;100.00;98529.41;6075812;29;20115;-90
2023/03/07 08:49:02;;;;;;;3.85;0.82;;;;;;;1.69;100.00;98527.44;6080810;29;20077;-90
2023/03/07 08:52:05;;;;;;;2.55;0.88;;;;;;;1.71;100.00;98529.84;6086675;29;20047;-88
2023/03/07 08:55:07;;;;;;;5.07;0.70;;;;;;;1.77;100.00;98521.75;6072363;29;20167;-89
2023/03/07 08:58:09;;;;;;;2.40;0.80;;;;;;;1.72;100.00;98534.03;6081383;29;20060;-88
2023/03/07 09:01:13;;;;;;;3.78;0.60;;;;;;;1.66;100.00;98526.84;6070956;29;20573;-88
2023/03/07 09:04:15;;;;;;;2.50;0.85;;;;;;;1.69;100.00;98529.97;6080365;29;20110;-89
2023/03/07 09:07:18;;;;;;;2.53;0.73;;;;;;;1.71;100.00;98529.84;6076504;29;20048;-89
2023/03/07 09:10:21;;;;;;;1.70;0.63;;;;;;;1.64;100.00;98531.22;6090082;29;20048;-91
2023/03/07 09:13:23;;;;;;;4.90;0.70;;;;;;;1.61;100.00;98528.91;6079051;29;20040;-92
2023/03/07 09:16:25;;;;;;;2.60;0.90;;;;;;;1.59;100.00;98523.94;6072173;29;20111;-93
2023/03/07 09:19:27;;;;;;;2.83;0.73;;;;;;;1.63;100.00;98530.44;6075291;29;20514;-93
2023/03/07 09:22:29;;;;;;;1.58;0.60;;;;;;;1.72;100.00;98539.16;6071727;29;20068;-92
2023/03/07 09:25:32;;;;;;;3.03;0.80;;;;;;;1.72;100.00;98526.41;6073852;29;20128;-92
2023/03/07 09:28:33;;;;;;;3.92;0.70;;;;;;;1.63;100.00;98542.38;6065027;29;20049;-93
2023/03/07 09:31:35;;;;;;;2.00;0.90;;;;;;;1.58;100.00;98535.06;6069261;29;20037;-90
2023/03/07 09:34:37;;;;;;;2.78;1.02;;;;;;;1.48;100.00;98534.91;6077093;29;20076;-90
2023/03/07 09:37:39;;;;;;;1.95;0.80;;;;;;;1.39;100.00;98539.88;6070906;29;20770;-91
2023/03/07 09:40:45;;;;;;;0.90;0.80;;;;;;;1.38;100.00;98538.25;6083983;29;20041;-90
2023/03/07 09:44:24;;;;;;;0.65;0.60;;;;;;;1.37;100.00;98531.56;6067685;29;20608;-90
2023/03/07 09:47:50;;;;;;;1.73;0.70;;;;;;;1.32;100.00;98542.09;6073793;29;20064;-86
2023/03/07 09:51:18;;;;;;;2.40;0.50;;;;;;;1.18;100.00;98542.25;6071490;29;20360;-88
2023/03/07 09:54:58;;;;;;;4.35;0.68;;;;;;;1.17;100.00;98535.53;6065460;29;20443;-88
2023/03/07 09:58:08;;;;;;;3.33;0.93;;;;;;;1.19;100.00;98536.22;6005082;29;20091;-87
2023/03/07 10:01:14;;;;;;;3.20;0.90;;;;;;;1.17;100.00;98525.31;6023032;29;20619;-88
2023/03/07 10:04:32;;;;;;;2.20;0.60;;;;;;;1.19;100.00;98528.59;6019979;29;20045;-87
2023/03/07 10:07:34;;;;;;;3.78;0.70;;;;;;;1.17;100.00;98536.34;6007176;29;20068;-87
2023/03/07 10:10:51;;;;;;;2.83;0.60;;;;;;;1.26;100.00;98539.97;6022729;29;20597;-86
2023/03/07 10:14:05;;;;;;;2.05;0.70;;;;;;;1.29;100.00;98535.47;6017545;29;20110;-86
2023/03/07 10:17:34;;;;;;;0.60;0.60;;;;;;;1.29;100.00;98538.03;6019017;29;20064;-90
2023/03/07 10:20:56;;;;;;;2.83;0.82;;;;;;;1.21;100.00;98542.03;6016301;29;20057;-86
2023/03/07 10:24:18;;;;;;;0.85;0.50;;;;;;;1.24;100.00;98544.34;6016988;29;20037;-89
2023/03/07 10:27:25;;;;;;;1.75;0.73;;;;;;;1.16;100.00;98544.91;6018848;29;20088;-88
2023/03/07 10:30:31;;;;;;;0.98;0.60;;;;;;;1.27;100.00;98551.81;6018608;29;20074;-87
2023/03/07 10:33:35;;;;;;;0.60;0.60;;;;;;;1.18;100.00;98544.81;6035077;29;20093;-87
2023/03/07 10:36:48;;;;;;;1.50;0.60;;;;;;;1.20;100.00;98553.16;6077391;29;20088;-88
2023/03/07 10:40:04;;;;;;;0.75;0.55;;;;;;;1.12;100.00;98552.88;6083874;29;20040;-87
2023/03/07 10:43:06;;;;;;;3.35;0.85;;;;;;;1.13;100.00;98550.22;6073445;29;20052;-86
2023/03/07 10:46:21;;;;;;;0.93;0.80;;;;;;;1.16;100.00;98551.75;6068498;29;20419;-86
2023/03/07 10:49:31;;;;;;;2.80;0.80;;;;;;;1.25;100.00;98554.44;6077057;29;20558;-86
2023/03/07 10:52:47;;;;;;;2.28;0.73;;;;;;;1.22;100.00;98548.78;6068755;29;20491;-88
2023/03/07 10:55:50;;;;;;;0.90;0.70;;;;;;;1.26;100.00;98553.50;6068532;29;20165;-89
2023/03/07 10:59:09;;;;;;;2.03;0.70;;;;;;;1.38;100.00;98553.56;6067437;29;20044;-88
2023/03/07 11:02:29;;;;;;;1.63;0.90;;;;;;;1.47;100.00;98551.16;6076057;29;20045;-87
2023/03/07 11:05:33;;;;;;;3.07;0.80;;;;;;;1.44;100.00;98553.09;6068411;29;20051;-86
2023/03/07 11:08:37;;;;;;;0.95;0.77;;;;;;;1.45;100.00;98540.25;6068355;29;20045;-87
2023/03/07 11:11:47;;;;;;;1.65;0.65;;;;;;;1.62;100.00;98546.66;6089376;29;20041;-87
2023/03/07 11:15:07;;;;;;;0.70;0.70;;;;;;;1.59;100.00;98546.91;6082522;29;20487;-89
2023/03/07 11:18:28;;;;;;;1.97;0.90;;;;;;;1.62;100.00;98536.47;6064985;29;20051;-86
2023/03/07 11:21:35;;;;;;;0.60;0.60;;;;;;;1.58;100.00;98537.59;6069017;29;20049;-87
2023/03/07 11:24:38;;;;;;;1.52;0.75;;;;;;;1.64;100.00;98534.63;6068823;29;20059;-88
2023/03/07 11:27:50;;;;;;;0.73;0.70;;;;;;;1.62;100.00;98540.75;6067475;29;20091;-89
2023/03/07 11:31:15;;;;;;;3.33;0.77;;;;;;;1.71;100.00;98535.78;6083421;29;20438;-90
2023/03/07 11:34:32;;;;;;;1.83;0.82;;;;;;;1.76;100.00;98537.97;6077985;29;20128;-92
2023/03/07 11:37:45;;;;;;;0.70;0.63;;;;;;;1.76;100.00;98542.25;6088391;29;20052;-92
2023/03/07 11:41:15;;;;;;;0.98;0.70;;;;;;;1.80;100.00;98536.81;6072983;29;20039;-92
2023/03/07 11:44:42;;;;;;;1.13;0.90;;;;;;;1.83;100.00;98541.69;6072270;29;20059;-92
2023/03/07 11:48:22;;;;;;;1.60;1.02;;;;;;;1.90;100.00;98534.41;6079858;29;20050;-92
2023/03/07 11:52:01;;;;;;;1.20;1.10;;;;;;;1.77;100.00;98538.81;6084374;29;20056;-92
2023/03/07 11:55:30;;;;;;;2.08;1.08;;;;;;;1.90;100.00;98530.09;6083813;29;20048;-92
2023/03/07 11:59:01;;;;;;;1.52;1.10;;;;;;;2.12;100.00;98518.28;6081682;29;20049;-90
2023/03/07 12:02:39;;;;;;;1.85;1.25;;;;;;;2.43;100.00;98511.59;6078980;29;20603;-91
2023/03/07 12:05:54;;;;;;;1.60;1.25;;;;;;;2.66;100.00;98526.88;6000199;29;20623;-90
2023/03/07 12:09:15;;;;;;;1.80;1.50;;;;;;;2.72;100.00;98523.84;6009014;29;20073;-91
2023/03/07 12:12:35;;;;;;;1.30;1.00;;;;;;;2.84;100.00;98515.22;6006321;29;20073;-90
2023/03/07 12:16:24;;;;;;;3.33;1.40;;;;;;;2.86;100.00;98518.47;6000020;29;20061;-90
2023/03/07 12:20:03;;;;;;;1.73;1.40;;;;;;;2.91;100.00;98520.66;5915005;30;20066;-89
2023/03/07 12:23:18;;;;;;;3.33;1.48;;;;;;;2.99;100.00;98518.28;5905086;30;20515;-89
2023/03/07 12:26:58;;;;;;;1.23;1.10;;;;;;;3.12;100.00;98518.91;5910082;30;20110;-89
2023/03/07 12:30:05;;;;;;;1.30;1.17;;;;;;;3.33;100.00;98526.63;5887719;30;20071;-89
2023/03/07 12:33:16;;;;;;;1.50;1.02;;;;;;;3.43;100.00;98526.69;5895073;30;20101;-89
2023/03/07 12:36:26;;;;;;;1.23;0.60;;;;;;;3.41;100.00;98528.53;5890926;30;20103;-89
2023/03/07 12:39:54;;;;;;;1.13;0.80;;;;;;;3.39;100.00;98520.19;5887894;30;20471;-88
2023/03/07 12:43:21;;;;;;;2.33;0.80;;;;;;;3.30;100.00;98529.41;5887596;30;20763;-89
2023/03/07 12:46:43;;;;;;;0.88;0.70;;;;;;;3.25;100.00;98526.41;5886465;30;20055;-89
2023/03/07 12:50:02;;;;;;;2.20;0.80;;;;;;;3.04;100.00;98530.72;5894908;30;20083;-89
2023/03/07 12:53:10;;;;;;;3.28;0.77;;;;;;;3.08;100.00;98527.78;5887394;30;20051;-87
2023/03/07 12:56:19;;;;;;;6.70;1.05;;;;;;;3.23;100.00;98529.09;6001043;29;20064;-88
2023/03/07 12:59:22;;;;;;;2.67;1.30;;;;;;;3.23;100.00;98518.88;6022165;29;20072;-88
2023/03/07 13:02:29;;;;;;;2.33;1.50;;;;;;;3.28;100.00;98512.56;6005909;29;20127;-88
2023/03/07 13:05:34;;;;;;;2.38;1.55;;;;;;;3.27;100.00;98521.19;6011568;29;20052;-88
2023/03/07 13:08:36;;;;;;;2.55;1.80;;;;;;;3.38;100.00;98523.66;6074149;29;20052;-88
2023/03/07 13:12:23;;;;;;;4.20;1.65;;;;;;;3.28;100.00;98527.91;6075977;29;20051;-88
2023/03/07 13:15:26;;;;;;;2.05;1.55;;;;;;;3.27;100.00;98526.28;6072730;29;20056;-88
2023/03/07 13:18:30;;;;;;;2.47;2.05;;;;;;;3.44;100.00;98520.63;6092184;29;20053;-88
2023/03/07 13:21:32;;;;;;;2.25;1.48;;;;;;;3.69;100.00;98526.28;6082493;29;20049;-88
2023/03/07 13:24:40;;;;;;;1.83;1.70;;;;;;;3.95;100.00;98517.25;6071183;29;20454;-89
2023/03/07 13:27:47;;;;;;;2.38;1.70;;;;;;;4.06;100.00;98529.94;6086294;29;20069;-88
2023/03/07 13:31:14;;;;;;;3.80;1.90;;;;;;;4.03;100.00;98529.41;6070193;29;20041;-89
2023/03/07 13:34:45;;;;;;;5.47;2.20;;;;;;;3.82;100.00;98532.78;6070271;29;20160;-88
2023/03/07 13:37:48;;;;;;;;;;;;;;;3.63;100.00;98533.53;6066973;29;20439;-89
2023/03/07 13:40:56;;;;;;;2.97;2.38;;;;;;;3.42;100.00;98540.38;6065177;29;19938;-88
2023/03/07 13:44:00;;;;;;;3.45;2.15;;;;;;;3.07;100.00;98556.81;6067908;29;20045;-89
2023/03/07 13:47:03;;;;;;;1.00;0.70;;;;;;;2.67;100.00;98559.97;6067065;29;20090;-88
2023/03/07 13:50:34;;;;;;;2.90;0.60;;;;;;;2.01;100.00;98561.63;6077205;29;20041;-89
2023/03/07 13:53:53;;;;;;;3.40;0.70;;;;;;;1.45;100.00;98570.03;6078431;29;20578;-89
2023/03/07 13:56:56;;;;;;;0.73;0.60;;;;;;;1.02;100.00;98573.94;6078964;29;20151;-90
2023/03/07 14:00:00;;;;;;;0.50;0.50;;;;;;;0.73;100.00;98580.28;6066674;29;20523;-90
2023/03/07 14:03:45;;;;;;;0.70;0.60;;;;;;;0.68;100.00;98584.88;6063450;29;20048;-89
2023/03/07 14:07:00;;;;;;;2.05;0.73;;;;;;;0.58;100.00;98588.03;5972801;29;20061;-89
2023/03/07 14:10:14;;;;;;;1.27;0.70;;;;;;;0.62;100.00;98591.19;5974258;29;20444;-88
2023/03/07 14:13:53;;;;;;;6.13;0.95;;;;;;;0.39;100.00;98602.94;5975738;29;20046;-88
2023/03/07 14:17:20;;;;;;;1.45;0.90;;;;;;;0.39;100.00;98619.03;5977319;29;20057;-88
2023/03/07 14:20:41;;;;;;;2.03;0.63;;;;;;;0.37;100.00;98617.50;5955405;29;20497;-88
2023/03/07 14:24:01;;;;;;;;;;;;;;;0.35;100.00;98615.09;5983738;29;20509;-90
2023/03/07 14:27:11;;;;;;;2.45;0.77;;;;;;;0.28;100.00;98613.88;5975574;29;19928;-89
2023/03/07 14:30:15;;;;;;;3.28;0.77;;;;;;;0.37;100.00;98610.72;5978311;29;20054;-88
2023/03/07 14:33:17;;;;;;;3.05;0.77;;;;;;;0.51;100.00;98598.75;5976308;29;20442;-89
2023/03/07 14:36:22;;;;;;;0.77;0.52;;;;;;;0.56;100.00;98610.25;5978796;29;20056;-89
2023/03/07 14:39:48;;;;;;;4.00;1.10;;;;;;;0.50;100.00;98615.78;5976424;29;20054;-89